Time;durP1;ratioP1;P1;durP2;ratioP2;P2;SDS_P1;SDS_P2;PMS_P1;PMS_P2;Temp;Humidity;BMP_temperature;BMP_pressure;BME280_temperature;BME280_humidity;BME280_pressure;Samples;Min_cycle;Max_cycle;Signal;HPM_P1;HPM_P2
2021/01/09 00:00:30;;;;;;;21.61;14.09;;;;;;;2.17;69.88;99083.22;331165;112;2390999;-74
2021/01/09 00:01:39;;;;;;;23.09;13.97;;;;;;;2.15;69.73;99077.22;322325;114;1962930;-72
2021/01/09 00:02:44;;;;;;;22.57;14.69;;;;;;;2.13;69.68;99078.38;317819;114;2031696;-73
2021/01/09 00:03:50;;;;;;;25.68;15.83;;;;;;;2.06;69.86;99080.03;352976;112;1964944;-73
2021/01/09 00:04:55;;;;;;;25.12;15.48;;;;;;;1.99;70.04;99077.22;355093;112;1961977;-72
2021/01/09 00:06:00;;;;;;;25.17;16.22;;;;;;;1.90;69.94;99071.02;352533;112;1962069;-73
2021/01/09 00:07:10;;;;;;;29.28;16.04;;;;;;;1.83;70.32;99074.54;354055;114;1963880;-72
2021/01/09 00:08:16;;;;;;;24.10;14.98;;;;;;;1.77;70.39;99081.33;354476;114;1961958;-73
2021/01/09 00:09:22;;;;;;;22.25;14.58;;;;;;;1.74;70.57;99081.66;313215;113;2750938;-72
2021/01/09 00:10:28;;;;;;;22.87;14.48;;;;;;;1.73;70.31;99082.67;351966;112;1961965;-72
2021/01/09 00:11:33;;;;;;;22.66;13.62;;;;;;;1.73;70.37;99077.34;342580;114;1962008;-73
2021/01/09 00:12:40;;;;;;;25.99;15.03;;;;;;;1.73;71.06;99080.83;353423;114;1962018;-72
2021/01/09 00:13:46;;;;;;;21.96;13.67;;;;;;;1.75;70.99;99075.36;306405;114;2842952;-73
2021/01/09 00:14:52;;;;;;;22.92;14.28;;;;;;;1.80;70.83;99083.69;320491;115;1962968;-72
2021/01/09 00:15:57;;;;;;;25.60;13.47;;;;;;;1.84;70.80;99077.02;352005;112;1961951;-73
2021/01/09 00:17:05;;;;;;;23.44;13.39;;;;;;;1.91;70.73;99079.88;354096;114;1962963;-73
2021/01/09 00:18:11;;;;;;;21.62;13.62;;;;;;;1.93;70.84;99080.52;321063;112;1962019;-72
2021/01/09 00:19:16;;;;;;;23.98;13.72;;;;;;;1.96;70.65;99080.22;340319;114;1961950;-72
2021/01/09 00:20:23;;;;;;;22.31;13.66;;;;;;;2.01;70.56;99079.70;354037;112;1961948;-72
2021/01/09 00:21:34;;;;;;;22.23;13.96;;;;;;;2.00;70.60;99080.70;308074;114;2801915;-73
2021/01/09 00:22:40;;;;;;;22.17;13.39;;;;;;;2.02;70.71;99081.38;310446;114;2057945;-73
2021/01/09 00:23:46;;;;;;;22.02;13.33;;;;;;;2.05;70.73;99089.86;351489;114;1964972;-72
2021/01/09 00:24:51;;;;;;;22.89;14.52;;;;;;;2.12;70.49;99085.55;351343;114;1962046;-72
2021/01/09 00:25:56;;;;;;;24.34;15.31;;;;;;;2.13;70.30;99081.05;355023;112;1961885;-72
2021/01/09 00:27:12;;;;;;;22.93;14.01;;;;;;;2.18;70.45;99084.88;354287;114;1961981;-73
2021/01/09 00:28:18;;;;;;;20.91;12.73;;;;;;;2.24;70.34;99082.55;325494;114;2935986;-73
2021/01/09 00:29:24;;;;;;;20.27;13.02;;;;;;;2.23;70.10;99083.55;322577;114;1961999;-73
2021/01/09 00:30:40;;;;;;;24.84;15.24;;;;;;;2.28;69.94;99078.56;350526;112;1962017;-72
2021/01/09 00:31:47;;;;;;;22.74;14.32;;;;;;;2.30;69.84;99081.87;360837;111;1964008;-73
2021/01/09 00:32:52;;;;;;;23.92;15.29;;;;;;;2.27;69.58;99077.70;341147;113;2329951;-73
2021/01/09 00:33:57;;;;;;;22.95;14.73;;;;;;;2.27;69.62;99083.03;330418;113;1962000;-73
2021/01/09 00:35:05;;;;;;;23.93;14.79;;;;;;;2.27;69.44;99077.70;350930;113;1961937;-73
2021/01/09 00:36:11;;;;;;;25.08;16.31;;;;;;;2.16;69.67;99080.70;326063;115;2482947;-72
2021/01/09 00:37:17;;;;;;;25.02;15.89;;;;;;;2.01;70.15;99077.03;349708;113;1961997;-73
2021/01/09 00:38:23;;;;;;;23.89;15.55;;;;;;;1.86;70.77;99091.02;352606;113;1962923;-72
2021/01/09 00:39:29;;;;;;;21.36;13.41;;;;;;;1.80;70.78;99086.35;350917;113;1964819;-71
2021/01/09 00:40:36;;;;;;;23.12;14.25;;;;;;;1.76;70.61;99080.50;349601;113;1961888;-72
2021/01/09 00:41:42;;;;;;;23.61;14.72;;;;;;;1.74;71.00;99079.83;353658;113;1961952;-72
2021/01/09 00:42:48;;;;;;;20.91;13.46;;;;;;;1.75;70.98;99081.52;348730;115;1960982;-72
2021/01/09 00:43:53;;;;;;;24.20;14.38;;;;;;;1.78;71.13;99080.35;351447;115;1961952;-72
2021/01/09 00:44:59;;;;;;;23.04;14.51;;;;;;;1.87;70.59;99076.69;328622;115;2410937;-72
2021/01/09 00:46:05;;;;;;;21.84;13.48;;;;;;;1.90;70.60;99076.35;333749;115;1962950;-72
2021/01/09 00:47:10;;;;;;;22.39;13.51;;;;;;;1.92;70.60;99082.36;351338;113;1964101;-72
2021/01/09 00:48:16;;;;;;;22.28;13.77;;;;;;;2.01;70.37;99077.03;348586;115;1961955;-72
2021/01/09 00:49:21;;;;;;;24.32;15.05;;;;;;;2.05;70.29;99081.05;352560;113;1963967;-72
2021/01/09 00:50:28;;;;;;;24.57;15.20;;;;;;;2.02;70.43;99074.22;313863;113;2705991;-72
2021/01/09 00:51:33;;;;;;;22.99;15.11;;;;;;;2.06;70.48;99067.55;327618;113;1962998;-72
2021/01/09 00:52:40;;;;;;;21.41;14.81;;;;;;;2.08;70.46;99076.20;343478;116;1961974;-72
2021/01/09 00:53:45;;;;;;;22.26;14.14;;;;;;;2.12;70.40;99080.22;354494;113;1961919;-73
2021/01/09 00:54:50;;;;;;;22.56;14.02;;;;;;;2.17;70.36;99072.56;351749;113;1961978;-72
2021/01/09 00:55:56;;;;;;;22.30;14.23;;;;;;;2.19;70.22;99075.04;350510;113;1961964;-72
2021/01/09 00:57:02;;;;;;;22.59;14.07;;;;;;;2.21;70.27;99078.37;304540;113;2806011;-72
2021/01/09 00:58:08;;;;;;;22.92;14.49;;;;;;;2.25;70.25;99077.06;348763;115;1962007;-72
2021/01/09 00:59:13;;;;;;;23.32;15.11;;;;;;;2.29;70.09;99081.04;354383;113;1961925;-73
2021/01/09 01:00:21;;;;;;;24.35;14.88;;;;;;;2.32;69.91;99075.38;350924;113;1962041;-72
2021/01/09 01:01:26;;;;;;;25.28;15.71;;;;;;;2.36;69.73;99075.89;338406;115;2213011;-73
2021/01/09 01:02:31;;;;;;;26.88;16.43;;;;;;;2.32;69.70;99067.38;331579;113;1961938;-72
2021/01/09 01:03:40;;;;;;;25.22;16.56;;;;;;;2.37;69.52;99078.37;350100;113;1962941;-73
2021/01/09 01:04:47;;;;;;;27.06;18.04;;;;;;;2.32;69.48;99071.87;322339;115;1962004;-72
2021/01/09 01:05:52;;;;;;;30.33;18.60;;;;;;;2.25;69.41;99070.87;354018;115;1962028;-72
2021/01/09 01:06:58;;;;;;;26.32;17.12;;;;;;;2.09;70.01;99069.05;352504;113;1961948;-73
2021/01/09 01:08:04;;;;;;;26.36;15.29;;;;;;;2.05;69.73;99068.55;331699;113;2225796;-72
2021/01/09 01:09:10;;;;;;;25.14;16.89;;;;;;;1.93;70.02;99070.72;353049;115;1962028;-72
2021/01/09 01:10:16;;;;;;;23.77;16.06;;;;;;;1.89;70.18;99069.38;349566;113;1961965;-72
2021/01/09 01:11:27;;;;;;;28.36;17.48;;;;;;;1.85;70.40;99068.02;353185;114;1962922;-72
2021/01/09 01:12:33;;;;;;;27.80;16.07;;;;;;;1.80;70.74;99061.53;351358;113;1963008;-72
2021/01/09 01:13:38;;;;;;;26.05;15.41;;;;;;;1.82;70.73;99064.86;338784;113;1961979;-72
2021/01/09 01:14:44;;;;;;;24.68;14.19;;;;;;;1.84;70.82;99060.22;351918;113;1962008;-72
2021/01/09 01:15:50;;;;;;;25.31;14.85;;;;;;;1.87;70.91;99066.03;353741;113;1962037;-72
2021/01/09 01:16:56;;;;;;;22.46;13.69;;;;;;;1.92;70.67;99062.89;350774;114;1963978;-72
2021/01/09 01:18:02;;;;;;;23.28;14.47;;;;;;;1.95;70.72;99063.37;314567;113;2644009;-72
2021/01/09 01:19:07;;;;;;;23.22;14.24;;;;;;;1.99;70.88;99069.22;339448;113;1961909;-72
2021/01/09 01:20:13;;;;;;;22.64;14.23;;;;;;;2.05;70.64;99059.73;347139;114;1961897;-73
2021/01/09 01:21:19;;;;;;;24.86;15.31;;;;;;;2.08;70.75;99070.05;344270;116;1963996;-72
2021/01/09 01:22:25;;;;;;;26.64;14.66;;;;;;;2.11;70.55;99065.21;353134;113;1962025;-72
2021/01/09 01:23:31;;;;;;;24.36;14.87;;;;;;;2.15;70.52;99069.22;324831;115;2485279;-72
2021/01/09 01:24:36;;;;;;;25.24;14.92;;;;;;;2.22;70.40;99068.55;324432;113;1962006;-72
2021/01/09 01:25:42;;;;;;;22.65;14.42;;;;;;;2.25;70.33;99069.06;353858;115;1962993;-72
2021/01/09 01:26:47;;;;;;;23.77;14.33;;;;;;;2.25;70.25;99063.73;353586;115;1961910;-72
2021/01/09 01:27:52;;;;;;;24.90;15.01;;;;;;;2.26;70.10;99062.72;349837;113;1961997;-71
2021/01/09 01:28:59;;;;;;;23.77;14.26;;;;;;;2.28;70.18;99065.23;352875;113;1965952;-73
2021/01/09 01:30:07;;;;;;;23.76;14.92;;;;;;;2.30;70.28;99066.73;345584;113;1965857;-73
2021/01/09 01:31:23;;;;;;;22.18;14.32;;;;;;;2.37;69.92;99056.22;352172;113;1961981;-73
2021/01/09 01:32:31;;;;;;;22.97;15.13;;;;;;;2.38;69.96;99061.39;339022;110;2394975;-72
2021/01/09 01:33:39;;;;;;;24.06;14.58;;;;;;;2.38;69.92;99056.06;356974;110;1963946;-72
2021/01/09 01:34:44;;;;;;;26.02;15.88;;;;;;;2.36;69.87;99060.72;334257;110;1962057;-72
2021/01/09 01:35:49;;;;;;;31.52;19.19;;;;;;;2.34;69.81;99060.05;361703;108;1962043;-72
2021/01/09 01:36:56;;;;;;;25.48;17.04;;;;;;;2.26;69.95;99049.40;362764;110;1962018;-72
2021/01/09 01:38:02;;;;;;;28.19;16.87;;;;;;;2.20;69.92;99061.56;319282;110;2828043;-72
2021/01/09 01:39:07;;;;;;;28.65;18.29;;;;;;;2.12;70.03;99050.91;345522;110;1965012;-72
2021/01/09 01:40:13;;;;;;;26.31;16.22;;;;;;;2.02;70.13;99060.90;364002;110;1962040;-71
2021/01/09 01:41:19;;;;;;;27.21;17.33;;;;;;;1.96;70.16;99054.41;363396;108;1962101;-72
2021/01/09 01:42:24;;;;;;;25.15;16.11;;;;;;;1.87;71.06;99051.89;362040;110;1963025;-72
2021/01/09 01:43:30;;;;;;;25.24;14.72;;;;;;;1.85;70.94;99051.22;362401;110;1961940;-72
2021/01/09 01:44:36;;;;;;;24.62;15.42;;;;;;;1.86;71.13;99048.41;315384;110;2239957;-71
2021/01/09 01:45:42;;;;;;;23.48;13.94;;;;;;;1.91;70.91;99042.59;340658;110;1962011;-72
2021/01/09 01:46:49;;;;;;;23.22;14.34;;;;;;;1.91;71.06;99048.73;363036;110;1962001;-72
2021/01/09 01:47:55;;;;;;;22.89;14.91;;;;;;;1.93;71.00;99049.41;325089;110;2024108;-72
2021/01/09 01:49:01;;;;;;;23.50;14.05;;;;;;;1.98;71.07;99047.09;348117;110;1961915;-72
2021/01/09 01:50:08;;;;;;;24.67;14.80;;;;;;;2.02;70.91;99046.75;363287;108;1965963;-72
2021/01/09 01:51:13;;;;;;;23.67;15.57;;;;;;;2.05;70.82;99054.41;365911;108;1961934;-71
2021/01/09 01:52:19;;;;;;;24.26;14.72;;;;;;;2.06;70.93;99042.73;322367;108;2739940;-72
2021/01/09 01:53:29;;;;;;;23.07;14.60;;;;;;;2.08;70.93;99046.91;342018;110;1962993;-72
2021/01/09 01:54:34;;;;;;;22.35;14.50;;;;;;;2.12;70.82;99044.76;335849;110;1961969;-72
2021/01/09 01:55:39;;;;;;;22.98;14.52;;;;;;;2.12;70.88;99047.42;353943;110;1961959;-72
2021/01/09 01:56:52;;;;;;;24.68;14.67;;;;;;;2.17;70.89;99047.72;362500;110;1961994;-71
2021/01/09 01:57:57;;;;;;;23.39;15.21;;;;;;;2.19;70.62;99043.06;363399;108;1962014;-72
2021/01/09 01:59:03;;;;;;;23.70;14.40;;;;;;;2.24;70.77;99046.06;320129;110;2761966;-72
2021/01/09 02:00:11;;;;;;;21.02;13.84;;;;;;;2.29;70.74;99049.06;359363;108;1962096;-73
2021/01/09 02:01:18;;;;;;;25.01;15.89;;;;;;;2.27;70.38;99044.89;336159;110;2511972;-72
2021/01/09 02:02:23;;;;;;;24.82;15.34;;;;;;;2.31;70.42;99041.73;366677;108;1961041;-72
2021/01/09 02:03:29;;;;;;;21.48;14.27;;;;;;;2.34;70.49;99044.06;366418;110;1960881;-72
2021/01/09 02:04:35;;;;;;;21.74;13.46;;;;;;;2.34;70.14;99037.91;363204;110;1961944;-72
2021/01/09 02:06:12;;;;;;;25.44;14.83;;;;;;;2.39;70.17;99030.23;364145;110;1960995;-72
2021/01/09 02:07:21;;;;;;;24.62;13.48;;;;;;;2.38;70.05;99032.08;352610;110;1961996;-72
2021/01/09 02:08:30;;;;;;;24.63;15.16;;;;;;;2.42;70.21;99035.22;306939;110;2232952;-72
2021/01/09 02:09:40;;;;;;;24.52;15.14;;;;;;;2.44;69.90;99035.89;363600;110;1961973;-72
2021/01/09 02:10:49;;;;;;;;;;;;;;;2.47;69.99;99029.39;367563;110;1960968;-72
2021/01/09 02:12:08;;;;;;;27.39;15.39;;;;;;;2.51;69.90;99028.86;365204;108;1961008;-73
2021/01/09 02:13:25;;;;;;;27.23;16.79;;;;;;;2.52;69.86;99033.20;356910;111;1961979;-72
2021/01/09 02:14:45;;;;;;;25.44;16.23;;;;;;;2.48;69.77;99031.05;347698;113;1964941;-72
2021/01/09 02:15:52;;;;;;;27.83;17.34;;;;;;;2.43;69.62;99034.20;355778;113;1963992;-73
2021/01/09 02:16:59;;;;;;;27.75;17.51;;;;;;;2.32;69.87;99027.40;354664;111;1962017;-72
2021/01/09 02:18:06;;;;;;;27.60;17.08;;;;;;;2.18;70.26;99034.25;365413;108;1961922;-72
2021/01/09 02:19:14;;;;;;;28.20;16.89;;;;;;;2.08;70.84;99030.09;360368;109;1961966;-72
2021/01/09 02:20:20;;;;;;;25.79;16.13;;;;;;;2.03;70.34;99027.09;352875;113;1962045;-72
2021/01/09 02:21:29;;;;;;;30.02;17.06;;;;;;;1.94;70.82;99027.09;362998;109;1962013;-72
2021/01/09 02:22:41;;;;;;;26.60;15.44;;;;;;;1.92;70.77;99033.59;361650;109;1961938;-72
2021/01/09 02:23:46;;;;;;;25.22;16.48;;;;;;;1.92;71.14;99025.59;353133;113;1963007;-71
2021/01/09 02:24:52;;;;;;;23.34;14.88;;;;;;;1.98;70.83;99025.78;322945;111;2934984;-72
2021/01/09 02:25:57;;;;;;;27.06;16.42;;;;;;;2.00;71.19;99022.93;328207;109;1961996;-73
2021/01/09 02:27:05;;;;;;;24.28;15.53;;;;;;;2.00;71.23;99022.93;355286;113;1962119;-73
2021/01/09 02:28:12;;;;;;;25.20;15.07;;;;;;;2.04;71.44;99028.75;357389;111;1963048;-72
2021/01/09 02:29:20;;;;;;;24.91;15.31;;;;;;;2.06;71.46;99019.59;359452;111;1963932;-72
2021/01/09 02:30:30;;;;;;;26.54;16.08;;;;;;;2.10;71.26;99020.11;354776;111;1963985;-72
2021/01/09 02:31:55;;;;;;;22.90;14.90;;;;;;;2.15;71.28;99029.26;316803;113;1999631;-74
2021/01/09 02:33:07;;;;;;;25.75;15.54;;;;;;;2.09;71.24;99026.41;334231;111;2388844;-72
2021/01/09 02:34:12;;;;;;;23.73;14.84;;;;;;;2.17;71.14;99021.94;352850;114;1961971;-72
2021/01/09 02:35:21;;;;;;;24.33;14.79;;;;;;;2.24;70.91;99027.41;353510;114;1963960;-72
2021/01/09 02:36:28;;;;;;;21.74;13.60;;;;;;;2.26;70.89;99025.41;351851;114;1961938;-72
2021/01/09 02:37:34;;;;;;;26.95;14.97;;;;;;;2.25;70.90;99023.77;352620;114;1962071;-72
2021/01/09 02:38:43;;;;;;;23.39;15.23;;;;;;;2.28;70.99;99018.09;321062;113;1961996;-72
2021/01/09 02:39:50;;;;;;;24.22;14.68;;;;;;;2.32;70.76;99023.91;355614;111;1964012;-72
2021/01/09 02:40:55;;;;;;;26.02;16.27;;;;;;;2.32;70.60;99026.58;348144;115;1961931;-72
2021/01/09 02:42:02;;;;;;;23.42;14.45;;;;;;;2.31;70.62;99020.42;349521;115;1962007;-72
2021/01/09 02:43:13;;;;;;;22.06;13.78;;;;;;;2.29;70.68;99022.41;355002;113;1961899;-71
2021/01/09 02:44:19;;;;;;;24.56;14.38;;;;;;;2.30;70.84;99024.09;338082;113;2284140;-73
2021/01/09 02:45:24;;;;;;;23.73;14.60;;;;;;;2.29;70.79;99019.74;345740;111;1962919;-72
2021/01/09 02:46:30;;;;;;;27.49;16.22;;;;;;;2.27;70.84;99013.75;352282;115;1961978;-71
2021/01/09 02:47:36;;;;;;;23.21;14.77;;;;;;;2.26;70.92;99012.09;352615;113;1961950;-72
2021/01/09 02:48:42;;;;;;;25.43;14.87;;;;;;;2.30;70.82;99017.91;356754;111;1961946;-72
2021/01/09 02:49:48;;;;;;;24.39;14.58;;;;;;;2.37;70.65;99013.58;316950;113;2700928;-72
2021/01/09 02:50:53;;;;;;;23.50;15.12;;;;;;;2.40;70.42;99023.89;327124;114;1962042;-72
2021/01/09 02:51:58;;;;;;;22.85;14.98;;;;;;;2.42;70.32;99024.56;345081;114;1962973;-72
2021/01/09 02:53:03;;;;;;;26.07;16.27;;;;;;;2.41;70.49;99014.91;351544;114;1963011;-71
2021/01/09 02:54:09;;;;;;;24.22;15.17;;;;;;;2.45;70.53;99020.73;352115;114;1962011;-72
2021/01/09 02:55:14;;;;;;;22.36;14.68;;;;;;;2.44;70.51;99019.08;351694;114;1961975;-72
2021/01/09 02:56:21;;;;;;;23.88;15.87;;;;;;;2.45;70.46;99021.55;352901;114;1960895;-73
2021/01/09 02:57:27;;;;;;;22.96;16.03;;;;;;;2.51;70.33;99020.04;303476;114;2870044;-72
2021/01/09 02:58:32;;;;;;;23.90;14.98;;;;;;;2.55;70.21;99021.38;345123;113;1962039;-72
2021/01/09 02:59:37;;;;;;;26.77;16.09;;;;;;;2.55;70.00;99032.87;348292;114;1961928;-72
2021/01/09 03:00:43;;;;;;;26.03;16.04;;;;;;;2.41;70.29;99018.41;351255;113;1962019;-73
2021/01/09 03:01:49;;;;;;;24.89;14.84;;;;;;;2.48;70.15;99021.20;352387;115;1961942;-72
2021/01/09 03:02:56;;;;;;;22.98;14.36;;;;;;;2.41;70.26;99023.73;305583;113;2800918;-72
2021/01/09 03:04:01;;;;;;;25.12;15.82;;;;;;;2.40;70.34;99018.56;322951;113;1962039;-72
2021/01/09 03:05:08;;;;;;;25.44;15.99;;;;;;;2.41;70.29;99025.58;349354;115;1964041;-72
2021/01/09 03:06:15;;;;;;;25.26;15.45;;;;;;;2.42;70.21;99021.89;333769;115;2275021;-72
2021/01/09 03:07:20;;;;;;;24.69;14.83;;;;;;;2.44;70.13;99024.41;334024;113;1961913;-72
2021/01/09 03:08:26;;;;;;;24.46;15.02;;;;;;;2.48;69.84;99026.54;344302;115;1963899;-73
2021/01/09 03:09:31;;;;;;;24.23;15.32;;;;;;;2.46;70.03;99022.38;350117;115;1960946;-72
2021/01/09 03:10:38;;;;;;;23.55;15.40;;;;;;;2.48;69.94;99028.38;352982;113;1962941;-72
2021/01/09 03:11:44;;;;;;;25.33;16.96;;;;;;;2.33;70.42;99022.89;313277;115;2745000;-72
2021/01/09 03:12:49;;;;;;;25.04;16.88;;;;;;;2.34;70.38;99021.91;324968;113;1962017;-73
2021/01/09 03:13:55;;;;;;;27.91;16.84;;;;;;;2.34;70.05;99022.73;356775;111;1962034;-72
2021/01/09 03:15:01;;;;;;;26.58;16.09;;;;;;;2.22;70.13;99010.75;350689;113;1960960;-72
2021/01/09 03:16:07;;;;;;;23.74;15.08;;;;;;;2.22;70.67;99026.73;352134;114;1964139;-72
2021/01/09 03:17:13;;;;;;;25.08;15.38;;;;;;;2.26;70.60;99024.59;322362;114;2510013;-72
2021/01/09 03:18:18;;;;;;;24.58;15.79;;;;;;;2.32;70.46;99024.73;323060;114;1964023;-73
2021/01/09 03:19:23;;;;;;;26.72;16.37;;;;;;;2.38;70.23;99012.56;346634;114;1961799;-72
2021/01/09 03:20:31;;;;;;;25.26;14.84;;;;;;;2.32;70.52;99021.24;352778;113;1963984;-73
2021/01/09 03:21:37;;;;;;;24.21;15.11;;;;;;;2.31;70.70;99028.41;309028;113;2853938;-72
2021/01/09 03:22:43;;;;;;;26.51;16.82;;;;;;;2.32;70.69;99015.91;340787;113;1962072;-73
2021/01/09 03:23:48;;;;;;;24.07;14.75;;;;;;;2.36;70.63;99018.08;356688;113;1962898;-73
2021/01/09 03:24:53;;;;;;;25.98;15.60;;;;;;;2.28;70.86;99027.92;355527;113;1961998;-73
2021/01/09 03:25:58;;;;;;;23.43;14.53;;;;;;;2.36;70.66;99014.59;357772;113;1963901;-72
2021/01/09 03:27:04;;;;;;;23.83;14.82;;;;;;;2.44;70.43;99013.74;354454;111;1961957;-72
2021/01/09 03:28:10;;;;;;;24.86;15.31;;;;;;;2.46;70.28;99017.05;357063;111;1961989;-72
2021/01/09 03:29:16;;;;;;;23.82;14.97;;;;;;;2.46;70.27;99017.05;318463;114;2920928;-72
2021/01/09 03:30:23;;;;;;;25.07;15.87;;;;;;;2.49;70.02;99012.23;351578;109;1961953;-72
2021/01/09 03:31:30;;;;;;;21.76;14.75;;;;;;;2.49;70.01;99011.38;363773;110;1962012;-72
2021/01/09 03:32:36;;;;;;;23.97;15.03;;;;;;;2.47;70.10;99016.89;333697;110;2497007;-72
2021/01/09 03:33:42;;;;;;;24.38;15.41;;;;;;;2.46;70.33;99017.05;366003;110;1962970;-73
2021/01/09 03:34:47;;;;;;;22.22;14.64;;;;;;;2.39;70.63;99012.41;370532;108;1961990;-73
2021/01/09 03:35:52;;;;;;;24.03;15.18;;;;;;;2.39;70.72;99016.91;369956;108;1961791;-73
2021/01/09 03:37:09;;;;;;;23.51;15.71;;;;;;;2.37;70.81;99024.23;372317;108;1962970;-72
2021/01/09 03:38:15;;;;;;;26.54;15.39;;;;;;;2.38;70.80;99021.41;331962;107;2698891;-72
2021/01/09 03:39:20;;;;;;;25.38;15.72;;;;;;;2.36;70.91;99015.41;355355;107;1962052;-72
2021/01/09 03:40:25;;;;;;;25.13;16.36;;;;;;;2.32;71.16;99019.41;367411;107;1961942;-72
2021/01/09 03:41:31;;;;;;;25.36;15.04;;;;;;;2.31;71.11;99020.42;368662;109;1962962;-72
2021/01/09 03:42:36;;;;;;;23.84;14.04;;;;;;;2.39;70.93;99015.07;366819;108;1962969;-72
2021/01/09 03:43:41;;;;;;;25.85;15.54;;;;;;;2.40;70.87;99023.89;369492;107;1963966;-71
2021/01/09 03:44:47;;;;;;;28.38;15.88;;;;;;;2.45;70.60;99023.39;371819;107;1961975;-72
2021/01/09 03:45:53;;;;;;;25.86;15.50;;;;;;;2.42;70.59;99021.89;326335;107;2726063;-72
2021/01/09 03:46:59;;;;;;;25.75;16.07;;;;;;;2.42;70.66;99028.05;358724;107;1962013;-73
2021/01/09 03:48:06;;;;;;;24.82;16.22;;;;;;;2.48;70.45;99026.54;367845;107;1961945;-73
2021/01/09 03:49:11;;;;;;;25.57;15.72;;;;;;;2.50;70.45;99029.05;367825;107;1960987;-71
2021/01/09 03:50:18;;;;;;;24.74;14.64;;;;;;;2.46;70.46;99025.90;317880;107;2091658;-73
2021/01/09 03:51:23;;;;;;;24.10;15.06;;;;;;;2.55;70.05;99027.53;365096;107;1963009;-72
2021/01/09 03:52:29;;;;;;;23.29;15.09;;;;;;;2.48;70.29;99026.54;370716;107;1961942;-73
2021/01/09 03:53:34;;;;;;;27.64;15.46;;;;;;;2.49;70.14;99030.89;370914;107;1961988;-72
2021/01/09 03:54:39;;;;;;;22.75;14.77;;;;;;;2.49;70.19;99033.55;369430;107;1964048;-72
2021/01/09 03:55:44;;;;;;;23.81;14.97;;;;;;;2.47;70.25;99032.06;368985;109;1961956;-72
2021/01/09 03:56:52;;;;;;;24.71;15.45;;;;;;;2.46;70.24;99033.90;324763;107;2884966;-72
2021/01/09 03:57:58;;;;;;;24.98;15.68;;;;;;;2.49;70.20;99030.03;368250;107;1961894;-73
2021/01/09 03:59:03;;;;;;;28.02;15.60;;;;;;;2.51;70.24;99028.03;370031;107;1961967;-71
2021/01/09 04:00:10;;;;;;;25.98;14.08;;;;;;;2.51;70.28;99023.53;370630;107;1962020;-72
2021/01/09 04:01:15;;;;;;;24.01;15.83;;;;;;;2.54;70.15;99035.69;368823;107;1963019;-72
2021/01/09 04:02:21;;;;;;;23.27;14.87;;;;;;;2.54;70.23;99035.69;330775;107;2649946;-73
2021/01/09 04:03:26;;;;;;;24.98;14.96;;;;;;;2.58;70.01;99039.69;356374;107;1961890;-73
2021/01/09 04:04:32;;;;;;;23.01;14.38;;;;;;;2.63;69.55;99037.34;370680;108;1964005;-72
2021/01/09 04:05:38;;;;;;;27.36;16.72;;;;;;;2.67;69.44;99045.83;370870;107;1961952;-73
2021/01/09 04:06:45;;;;;;;25.13;16.08;;;;;;;2.62;69.47;99039.19;355908;107;2225004;-72
2021/01/09 04:07:51;;;;;;;25.17;17.04;;;;;;;2.60;69.50;99037.70;348933;109;1963968;-72
2021/01/09 04:08:56;;;;;;;28.76;17.63;;;;;;;2.53;69.77;99039.37;370790;108;1961932;-72
2021/01/09 04:10:03;;;;;;;25.81;17.04;;;;;;;2.45;69.81;99032.22;371785;107;1962016;-73
2021/01/09 04:11:08;;;;;;;28.52;17.66;;;;;;;2.41;69.74;99033.57;338228;107;2559991;-71
2021/01/09 04:12:15;;;;;;;31.26;19.24;;;;;;;2.29;70.06;99035.73;339475;117;1962888;-73
2021/01/09 04:13:21;;;;;;;30.46;17.04;;;;;;;2.19;70.47;99033.23;337420;118;1961919;-72
2021/01/09 04:14:26;;;;;;;23.49;15.82;;;;;;;2.07;71.01;99031.11;334647;118;1961999;-72
2021/01/09 04:15:32;;;;;;;24.08;16.52;;;;;;;1.98;71.49;99044.42;303276;118;2932043;-72
2021/01/09 04:16:38;;;;;;;27.27;16.66;;;;;;;1.97;71.41;99039.25;336853;118;1963049;-72
2021/01/09 04:17:44;;;;;;;24.38;14.93;;;;;;;1.97;71.17;99037.41;334693;118;1962016;-72
2021/01/09 04:18:49;;;;;;;27.66;16.51;;;;;;;2.02;71.21;99033.43;335776;118;1963055;-73
2021/01/09 04:19:56;;;;;;;25.83;15.91;;;;;;;2.01;71.68;99034.41;339624;118;1961975;-72
2021/01/09 04:21:02;;;;;;;27.52;16.81;;;;;;;2.06;71.67;99035.57;301052;120;2563962;-71
2021/01/09 04:22:07;;;;;;;24.87;16.09;;;;;;;2.11;71.54;99035.08;318451;118;1961988;-71
2021/01/09 04:23:12;;;;;;;29.54;16.23;;;;;;;2.15;71.54;99039.09;337609;118;1962968;-72
2021/01/09 04:24:21;;;;;;;23.60;15.12;;;;;;;2.13;71.69;99036.58;336605;117;1961992;-71
2021/01/09 04:25:26;;;;;;;25.80;15.49;;;;;;;2.14;71.68;99032.08;329311;119;1964834;-72
2021/01/09 04:26:32;;;;;;;26.16;15.54;;;;;;;2.20;71.67;99036.76;336021;119;1961931;-73
2021/01/09 04:27:38;;;;;;;26.71;15.76;;;;;;;2.27;71.34;99036.91;335335;119;1962037;-72
2021/01/09 04:28:44;;;;;;;24.21;15.73;;;;;;;2.33;71.14;99039.74;336615;119;1961970;-73
2021/01/09 04:29:50;;;;;;;27.72;16.59;;;;;;;2.33;71.18;99042.41;292046;118;2837907;-72
2021/01/09 04:30:56;;;;;;;25.99;16.49;;;;;;;2.37;71.16;99048.22;335071;118;1962002;-73
2021/01/09 04:32:01;;;;;;;25.88;15.77;;;;;;;2.41;71.05;99049.56;335952;118;1962053;-72
2021/01/09 04:33:07;;;;;;;24.05;14.89;;;;;;;2.42;70.81;99041.37;328586;122;1962028;-72
2021/01/09 04:34:14;;;;;;;25.00;15.13;;;;;;;2.43;70.84;99047.53;334594;118;1962960;-73
2021/01/09 04:35:19;;;;;;;25.40;15.40;;;;;;;2.45;70.83;99042.05;277158;120;2236431;-73
2021/01/09 04:36:26;;;;;;;23.16;15.07;;;;;;;2.47;70.69;99050.72;334078;118;1963944;-72
2021/01/09 04:37:36;;;;;;;24.91;15.22;;;;;;;2.46;70.66;99052.55;333913;118;1961968;-72
2021/01/09 04:38:40;;;;;;;24.66;15.45;;;;;;;2.50;70.53;99047.71;334707;118;1965950;-71
2021/01/09 04:39:45;;;;;;;26.21;17.20;;;;;;;2.50;70.53;99047.71;335205;118;1961994;-73
2021/01/09 04:40:50;;;;;;;27.46;16.74;;;;;;;2.53;70.43;99055.36;334886;118;1961966;-72
2021/01/09 04:41:55;;;;;;;28.10;18.54;;;;;;;2.52;70.46;99048.37;333319;118;1961996;-72
2021/01/09 04:43:05;;;;;;;25.58;17.38;;;;;;;2.54;70.39;99041.88;334407;118;1962067;31
2021/01/09 04:44:13;;;;;;;24.05;15.57;;;;;;;2.57;70.36;99043.38;350269;113;1961905;-73
2021/01/09 04:45:18;;;;;;;25.51;17.57;;;;;;;2.56;70.35;99041.69;327298;113;1962011;-72
2021/01/09 04:46:26;;;;;;;28.87;17.37;;;;;;;2.55;70.41;99042.70;355060;111;1961963;-72
2021/01/09 04:47:34;;;;;;;27.87;16.92;;;;;;;2.61;70.28;99044.68;333379;113;2373989;-72
2021/01/09 04:48:40;;;;;;;25.08;17.46;;;;;;;2.63;70.10;99040.84;354270;113;1964943;-72
2021/01/09 04:49:46;;;;;;;26.02;16.23;;;;;;;2.66;70.07;99045.00;352758;113;1961960;-72
2021/01/09 04:50:53;;;;;;;24.85;15.51;;;;;;;2.65;70.14;99048.69;346491;113;1962011;-72
2021/01/09 04:52:00;;;;;;;24.82;16.64;;;;;;;2.66;70.07;99042.34;354428;113;1961930;-72
2021/01/09 04:53:07;;;;;;;26.04;16.61;;;;;;;2.70;69.99;99040.16;355741;111;1963012;-73
2021/01/09 04:54:19;;;;;;;25.27;16.23;;;;;;;2.73;70.00;99047.84;355109;113;1962016;-74
2021/01/09 04:55:27;;;;;;;26.34;16.34;;;;;;;2.73;69.97;99050.50;355844;113;1961961;-72
2021/01/09 04:56:36;;;;;;;25.03;16.07;;;;;;;2.69;69.86;99052.66;354998;113;1961979;-71
2021/01/09 04:57:41;;;;;;;26.99;16.84;;;;;;;2.56;70.08;99053.18;353650;113;1962975;-73
2021/01/09 04:58:47;;;;;;;25.81;16.26;;;;;;;2.47;70.46;99054.21;352379;113;1961966;-72
2021/01/09 04:59:53;;;;;;;24.84;15.53;;;;;;;2.46;70.59;99054.37;354513;113;1964985;-72
2021/01/09 05:00:59;;;;;;;26.79;15.93;;;;;;;2.33;71.06;99063.73;336049;112;2956693;-72
2021/01/09 05:02:08;;;;;;;25.58;16.96;;;;;;;2.26;71.48;99059.23;353079;114;1961951;-71
2021/01/09 05:03:15;;;;;;;25.32;15.53;;;;;;;2.24;71.63;99066.55;337311;114;1962942;-72